sensor_id;sensor_type;location;lat;lon;timestamp;pressure;altitude;pressure_sealevel;temperature;humidity
35011;BME280;21205;37.378;127.098;2023-03-05T00:00:20;101300.66;;;23.47;41.66
35011;BME280;21205;37.378;127.098;2023-03-05T00:02:49;101313.97;;;23.50;42.31
35011;BME280;21205;37.378;127.098;2023-03-05T00:05:19;101309.16;;;23.51;42.20
35011;BME280;21205;37.378;127.098;2023-03-05T00:07:49;101312.78;;;23.51;42.67
35011;BME280;21205;37.378;127.098;2023-03-05T00:10:18;101306.03;;;23.40;42.46
35011;BME280;21205;37.378;127.098;2023-03-05T00:12:48;101305.22;;;23.40;42.12
35011;BME280;21205;37.378;127.098;2023-03-05T00:15:18;101303.94;;;23.37;42.22
35011;BME280;21205;37.378;127.098;2023-03-05T00:17:47;101311.19;;;23.38;42.09
35011;BME280;21205;37.378;127.098;2023-03-05T00:20:17;101321.59;;;23.38;42.17
35011;BME280;21205;37.378;127.098;2023-03-05T00:22:47;101307.22;;;23.39;41.71
35011;BME280;21205;37.378;127.098;2023-03-05T00:25:17;101311.19;;;23.38;41.58
35011;BME280;21205;37.378;127.098;2023-03-05T00:27:46;101316.81;;;23.38;41.72
35011;BME280;21205;37.378;127.098;2023-03-05T00:30:16;101305.56;;;23.38;41.62
35011;BME280;21205;37.378;127.098;2023-03-05T00:32:46;101311.31;;;23.42;41.29
35011;BME280;21205;37.378;127.098;2023-03-05T00:35:15;101315.41;;;23.44;41.26
35011;BME280;21205;37.378;127.098;2023-03-05T00:37:45;101315.50;;;23.48;40.96
35011;BME280;21205;37.378;127.098;2023-03-05T00:40:14;101320.41;;;23.51;41.06
35011;BME280;21205;37.378;127.098;2023-03-05T00:42:44;101319.47;;;23.47;40.89
35011;BME280;21205;37.378;127.098;2023-03-05T00:45:14;101317.50;;;23.47;40.57
35011;BME280;21205;37.378;127.098;2023-03-05T00:47:44;101311.19;;;23.38;40.87
35011;BME280;21205;37.378;127.098;2023-03-05T00:50:14;101312.34;;;23.49;40.44
35011;BME280;21205;37.378;127.098;2023-03-05T00:52:44;101300.41;;;23.40;40.59
35011;BME280;21205;37.378;127.098;2023-03-05T00:55:13;101314.44;;;23.52;40.43
35011;BME280;21205;37.378;127.098;2023-03-05T00:57:43;101313.59;;;23.52;40.48
35011;BME280;21205;37.378;127.098;2023-03-05T01:00:14;101314.88;;;23.54;40.35
35011;BME280;21205;37.378;127.098;2023-03-05T01:02:43;101312.06;;;23.54;39.95
35011;BME280;21205;37.378;127.098;2023-03-05T01:05:14;101298.09;;;23.42;40.06
35011;BME280;21205;37.378;127.098;2023-03-05T01:07:43;101308.34;;;23.50;39.78
35011;BME280;21205;37.378;127.098;2023-03-05T01:10:13;101310.94;;;23.55;39.66
35011;BME280;21205;37.378;127.098;2023-03-05T01:12:43;101308.94;;;23.56;39.78
35011;BME280;21205;37.378;127.098;2023-03-05T01:15:12;101303.66;;;23.54;39.51
35011;BME280;21205;37.378;127.098;2023-03-05T01:17:42;101300.63;;;23.59;39.39
35011;BME280;21205;37.378;127.098;2023-03-05T01:20:13;101299.16;;;23.66;39.49
35011;BME280;21205;37.378;127.098;2023-03-05T01:22:43;101298.47;;;23.69;39.72
35011;BME280;21205;37.378;127.098;2023-03-05T01:25:14;101296.38;;;23.66;39.31
35011;BME280;21205;37.378;127.098;2023-03-05T01:27:44;101292.56;;;23.74;39.32
35011;BME280;21205;37.378;127.098;2023-03-05T01:30:14;101286.50;;;23.72;39.91
35011;BME280;21205;37.378;127.098;2023-03-05T01:32:44;101282.19;;;23.74;39.51
35011;BME280;21205;37.378;127.098;2023-03-05T01:35:19;101279.47;;;23.78;39.97
35011;BME280;21205;37.378;127.098;2023-03-05T01:37:50;101278.66;;;23.77;40.04
35011;BME280;21205;37.378;127.098;2023-03-05T01:40:24;101269.16;;;23.82;39.58
35011;BME280;21205;37.378;127.098;2023-03-05T01:43:22;101269.97;;;23.82;39.46
35011;BME280;21205;37.378;127.098;2023-03-05T01:48:48;101264.44;;;23.86;39.72
35011;BME280;21205;37.378;127.098;2023-03-05T01:51:19;101265.63;;;23.85;39.41
35011;BME280;21205;37.378;127.098;2023-03-05T01:53:53;101259.28;;;23.88;39.20
35011;BME280;21205;37.378;127.098;2023-03-05T01:56:26;101260.19;;;23.92;39.30
35011;BME280;21205;37.378;127.098;2023-03-05T01:58:59;101252.56;;;23.93;38.97
35011;BME280;21205;37.378;127.098;2023-03-05T02:01:38;101248.13;;;23.92;39.17
35011;BME280;21205;37.378;127.098;2023-03-05T02:04:10;101234.09;;;23.92;39.09
35011;BME280;21205;37.378;127.098;2023-03-05T02:06:44;101241.41;;;23.96;39.10
35011;BME280;21205;37.378;127.098;2023-03-05T02:09:15;101240.59;;;23.96;38.68
35011;BME280;21205;37.378;127.098;2023-03-05T02:11:44;101241.41;;;23.96;39.02
35011;BME280;21205;37.378;127.098;2023-03-05T02:14:14;101246.75;;;24.01;38.86
35011;BME280;21205;37.378;127.098;2023-03-05T02:16:44;101242.31;;;24.00;39.18
35011;BME280;21205;37.378;127.098;2023-03-05T02:19:14;101232.81;;;24.05;38.80
35011;BME280;21205;37.378;127.098;2023-03-05T02:21:46;101235.25;;;24.06;38.85
35011;BME280;21205;37.378;127.098;2023-03-05T02:24:30;101228.47;;;24.07;38.94
35011;BME280;21205;37.378;127.098;2023-03-05T02:27:02;101230.56;;;24.10;39.37
35011;BME280;21205;37.378;127.098;2023-03-05T02:29:34;101216.16;;;24.12;38.97
35011;BME280;21205;37.378;127.098;2023-03-05T02:32:06;101227.03;;;24.13;39.17
35011;BME280;21205;37.378;127.098;2023-03-05T02:34:37;101212.97;;;24.13;38.96
35011;BME280;21205;37.378;127.098;2023-03-05T02:37:07;101206.53;;;24.13;38.87
35011;BME280;21205;37.378;127.098;2023-03-05T02:39:38;101207.44;;;24.17;38.70
35011;BME280;21205;37.378;127.098;2023-03-05T02:42:08;101207.06;;;24.18;39.02
35011;BME280;21205;37.378;127.098;2023-03-05T02:44:37;101194.28;;;24.21;38.67
35011;BME280;21205;37.378;127.098;2023-03-05T02:47:07;101193.19;;;24.26;38.65
35011;BME280;21205;37.378;127.098;2023-03-05T02:49:37;101183.56;;;24.27;38.39
35011;BME280;21205;37.378;127.098;2023-03-05T02:52:07;101182.88;;;24.30;38.60
35011;BME280;21205;37.378;127.098;2023-03-05T02:54:36;101176.44;;;24.29;38.32
35011;BME280;21205;37.378;127.098;2023-03-05T02:57:06;101172.53;;;24.34;38.46
35011;BME280;21205;37.378;127.098;2023-03-05T02:59:36;101170.09;;;24.32;37.70
35011;BME280;21205;37.378;127.098;2023-03-05T03:02:05;101164.91;;;24.34;38.29
35011;BME280;21205;37.378;127.098;2023-03-05T03:04:35;101161.00;;;24.39;37.87
35011;BME280;21205;37.378;127.098;2023-03-05T03:07:05;101159.84;;;24.40;37.95
35011;BME280;21205;37.378;127.098;2023-03-05T03:09:34;101151.75;;;24.38;37.82
35011;BME280;21205;37.378;127.098;2023-03-05T03:12:07;101155.47;;;24.42;38.08
35011;BME280;21205;37.378;127.098;2023-03-05T03:14:39;101151.50;;;24.43;37.95
35011;BME280;21205;37.378;127.098;2023-03-05T03:17:12;101149.50;;;24.44;37.72
35011;BME280;21205;37.378;127.098;2023-03-05T03:19:43;101139.06;;;24.44;37.85
35011;BME280;21205;37.378;127.098;2023-03-05T03:22:14;101140.75;;;24.49;38.21
35011;BME280;21205;37.378;127.098;2023-03-05T03:24:44;101129.59;;;24.52;37.79
35011;BME280;21205;37.378;127.098;2023-03-05T03:27:13;101123.66;;;24.58;38.39
35011;BME280;21205;37.378;127.098;2023-03-05T03:29:43;101123.31;;;24.59;38.46
35011;BME280;21205;37.378;127.098;2023-03-05T03:32:12;101113.31;;;24.62;39.35
35011;BME280;21205;37.378;127.098;2023-03-05T03:34:42;101111.38;;;24.66;40.38
35011;BME280;21205;37.378;127.098;2023-03-05T03:37:12;101108.56;;;24.66;40.33
35011;BME280;21205;37.378;127.098;2023-03-05T03:39:42;101106.75;;;24.73;40.42
35011;BME280;21205;37.378;127.098;2023-03-05T03:42:12;101102.75;;;24.74;40.26
35011;BME280;21205;37.378;127.098;2023-03-05T03:44:44;101099.50;;;24.72;40.91
35011;BME280;21205;37.378;127.098;2023-03-05T03:47:14;101099.94;;;24.74;40.53
35011;BME280;21205;37.378;127.098;2023-03-05T03:49:44;101091.50;;;24.74;40.55
35011;BME280;21205;37.378;127.098;2023-03-05T03:52:14;101092.38;;;24.78;39.68
35011;BME280;21205;37.378;127.098;2023-03-05T03:54:44;101088.81;;;24.81;39.83
35011;BME280;21205;37.378;127.098;2023-03-05T03:57:13;101075.56;;;24.82;39.56
35011;BME280;21205;37.378;127.098;2023-03-05T03:59:43;101078.44;;;24.86;39.20
35011;BME280;21205;37.378;127.098;2023-03-05T04:02:13;101071.63;;;24.87;39.11
35011;BME280;21205;37.378;127.098;2023-03-05T04:04:43;101066.38;;;24.85;38.96
35011;BME280;21205;37.378;127.098;2023-03-05T04:07:13;101058.00;;;24.89;39.56
35011;BME280;21205;37.378;127.098;2023-03-05T04:09:43;101054.44;;;24.92;38.89
35011;BME280;21205;37.378;127.098;2023-03-05T04:12:13;101053.25;;;24.93;38.75
35011;BME280;21205;37.378;127.098;2023-03-05T04:14:47;101046.88;;;24.96;38.60
35011;BME280;21205;37.378;127.098;2023-03-05T04:17:17;101044.50;;;24.98;38.40
35011;BME280;21205;37.378;127.098;2023-03-05T04:19:46;101031.63;;;24.97;38.84
35011;BME280;21205;37.378;127.098;2023-03-05T04:22:17;101041.41;;;25.03;38.62
35011;BME280;21205;37.378;127.098;2023-03-05T04:24:46;101028.97;;;25.04;38.39
35011;BME280;21205;37.378;127.098;2023-03-05T04:27:16;101025.88;;;25.09;38.26
35011;BME280;21205;37.378;127.098;2023-03-05T04:29:46;101013.00;;;25.08;38.62
35011;BME280;21205;37.378;127.098;2023-03-05T04:32:15;101020.75;;;25.15;38.06
35011;BME280;21205;37.378;127.098;2023-03-05T04:34:50;101009.09;;;25.16;38.36
35011;BME280;21205;37.378;127.098;2023-03-05T04:37:20;101008.34;;;25.19;38.12
35011;BME280;21205;37.378;127.098;2023-03-05T04:39:50;100989.53;;;25.23;38.32
35011;BME280;21205;37.378;127.098;2023-03-05T04:42:20;100993.59;;;25.26;38.04
35011;BME280;21205;37.378;127.098;2023-03-05T04:44:50;100986.00;;;25.30;37.82
35011;BME280;21205;37.378;127.098;2023-03-05T04:47:20;100974.38;;;25.31;37.84
35011;BME280;21205;37.378;127.098;2023-03-05T04:49:49;100979.66;;;25.36;38.10
35011;BME280;21205;37.378;127.098;2023-03-05T04:52:19;100961.69;;;25.41;38.15
35011;BME280;21205;37.378;127.098;2023-03-05T04:54:49;100964.16;;;25.46;38.17
35011;BME280;21205;37.378;127.098;2023-03-05T04:57:19;100959.78;;;25.49;37.70
35011;BME280;21205;37.378;127.098;2023-03-05T04:59:50;100946.56;;;25.53;37.83
35011;BME280;21205;37.378;127.098;2023-03-05T05:02:20;100938.59;;;25.58;37.99
35011;BME280;21205;37.378;127.098;2023-03-05T05:04:53;100938.63;;;25.62;38.13
35011;BME280;21205;37.378;127.098;2023-03-05T05:07:23;100937.88;;;25.65;37.97
35011;BME280;21205;37.378;127.098;2023-03-05T05:09:53;100929.50;;;25.68;37.31
35011;BME280;21205;37.378;127.098;2023-03-05T05:12:23;100921.94;;;25.72;37.53
35011;BME280;21205;37.378;127.098;2023-03-05T05:14:52;100924.78;;;25.76;37.23
35011;BME280;21205;37.378;127.098;2023-03-05T05:17:25;100920.00;;;25.80;37.19
35011;BME280;21205;37.378;127.098;2023-03-05T05:19:59;100917.25;;;25.84;37.18
35011;BME280;21205;37.378;127.098;2023-03-05T05:22:28;100914.03;;;25.85;37.09
35011;BME280;21205;37.378;127.098;2023-03-05T05:24:58;100912.88;;;25.90;37.03
35011;BME280;21205;37.378;127.098;2023-03-05T05:27:28;100920.19;;;25.94;37.13
35011;BME280;21205;37.378;127.098;2023-03-05T05:29:58;100909.75;;;25.98;36.84
35011;BME280;21205;37.378;127.098;2023-03-05T05:32:27;100909.38;;;26.00;37.46
35011;BME280;21205;37.378;127.098;2023-03-05T05:34:57;100909.44;;;26.03;37.13
35011;BME280;21205;37.378;127.098;2023-03-05T05:37:29;100907.47;;;26.08;37.40
35011;BME280;21205;37.378;127.098;2023-03-05T05:39:58;100908.75;;;26.14;37.93
35011;BME280;21205;37.378;127.098;2023-03-05T05:42:28;100908.75;;;26.14;37.18
35011;BME280;21205;37.378;127.098;2023-03-05T05:44:58;100900.72;;;26.16;37.09
35011;BME280;21205;37.378;127.098;2023-03-05T05:47:28;100901.56;;;26.20;37.20
35011;BME280;21205;37.378;127.098;2023-03-05T05:49:58;100894.72;;;26.21;36.85
35011;BME280;21205;37.378;127.098;2023-03-05T05:52:28;100893.53;;;26.22;36.90
35011;BME280;21205;37.378;127.098;2023-03-05T05:54:57;100896.00;;;26.27;36.88
35011;BME280;21205;37.378;127.098;2023-03-05T05:57:27;100892.78;;;26.28;37.23
35011;BME280;21205;37.378;127.098;2023-03-05T05:59:57;100885.66;;;26.34;37.19
35011;BME280;21205;37.378;127.098;2023-03-05T06:02:27;100883.25;;;26.37;36.98
35011;BME280;21205;37.378;127.098;2023-03-05T06:04:56;100878.44;;;26.37;37.45
35011;BME280;21205;37.378;127.098;2023-03-05T06:07:26;100878.50;;;26.44;37.43
35011;BME280;21205;37.378;127.098;2023-03-05T06:09:56;100884.56;;;26.46;37.38
35011;BME280;21205;37.378;127.098;2023-03-05T06:12:26;100878.63;;;26.58;38.68
35011;BME280;21205;37.378;127.098;2023-03-05T06:14:56;100868.94;;;26.56;38.97
35011;BME280;21205;37.378;127.098;2023-03-05T06:17:27;100870.56;;;26.57;38.47
35011;BME280;21205;37.378;127.098;2023-03-05T06:19:58;100877.81;;;26.58;38.60
35011;BME280;21205;37.378;127.098;2023-03-05T06:22:29;100876.63;;;26.62;38.85
35011;BME280;21205;37.378;127.098;2023-03-05T06:24:58;100875.44;;;26.63;38.71
35011;BME280;21205;37.378;127.098;2023-03-05T06:27:28;100868.19;;;26.66;38.65
35011;BME280;21205;37.378;127.098;2023-03-05T06:29:57;100869.50;;;26.72;38.95
35011;BME280;21205;37.378;127.098;2023-03-05T06:32:27;100867.47;;;26.73;38.69
35011;BME280;21205;37.378;127.098;2023-03-05T06:34:57;100857.03;;;26.77;38.57
35011;BME280;21205;37.378;127.098;2023-03-05T06:37:26;100865.50;;;26.77;38.56
35011;BME280;21205;37.378;127.098;2023-03-05T06:39:56;100859.88;;;26.80;38.31
35011;BME280;21205;37.378;127.098;2023-03-05T06:42:26;100855.47;;;26.83;38.16
35011;BME280;21205;37.378;127.098;2023-03-05T06:44:55;100848.19;;;26.82;37.91
35011;BME280;21205;37.378;127.098;2023-03-05T06:47:25;100855.50;;;26.90;38.10
35011;BME280;21205;37.378;127.098;2023-03-05T06:49:55;100853.88;;;26.89;37.95
35011;BME280;21205;37.378;127.098;2023-03-05T06:52:24;100864.38;;;26.92;37.87
35011;BME280;21205;37.378;127.098;2023-03-05T06:54:54;100864.81;;;26.94;37.66
35011;BME280;21205;37.378;127.098;2023-03-05T06:57:24;100855.13;;;26.95;37.55
35011;BME280;21205;37.378;127.098;2023-03-05T06:59:53;100849.91;;;26.97;37.67
35011;BME280;21205;37.378;127.098;2023-03-05T07:02:23;100856.75;;;26.96;37.41
35011;BME280;21205;37.378;127.098;2023-03-05T07:04:53;100854.81;;;27.00;37.41
35011;BME280;21205;37.378;127.098;2023-03-05T07:07:23;100849.19;;;27.04;37.48
35011;BME280;21205;37.378;127.098;2023-03-05T07:09:52;100850.44;;;27.06;37.41
35011;BME280;21205;37.378;127.098;2023-03-05T07:12:22;100842.75;;;27.03;37.40
35011;BME280;21205;37.378;127.098;2023-03-05T07:14:52;100846.78;;;27.06;37.49
35011;BME280;21205;37.378;127.098;2023-03-05T07:17:21;100843.56;;;27.07;37.46
35011;BME280;21205;37.378;127.098;2023-03-05T07:19:51;100839.56;;;27.08;37.54
35011;BME280;21205;37.378;127.098;2023-03-05T07:22:21;100839.19;;;27.13;37.35
35011;BME280;21205;37.378;127.098;2023-03-05T07:24:50;100846.44;;;27.14;37.21
35011;BME280;21205;37.378;127.098;2023-03-05T07:27:20;100842.41;;;27.15;37.22
35011;BME280;21205;37.378;127.098;2023-03-05T07:29:53;100841.22;;;27.16;37.29
35011;BME280;21205;37.378;127.098;2023-03-05T07:32:23;100838.78;;;27.18;37.31
35011;BME280;21205;37.378;127.098;2023-03-05T07:34:53;100823.47;;;27.19;38.17
35011;BME280;21205;37.378;127.098;2023-03-05T07:37:22;100836.41;;;27.24;37.40
35011;BME280;21205;37.378;127.098;2023-03-05T07:39:52;100829.56;;;27.28;37.26
35011;BME280;21205;37.378;127.098;2023-03-05T07:42:22;100825.53;;;27.26;36.76
35011;BME280;21205;37.378;127.098;2023-03-05T07:44:51;100829.94;;;27.23;36.80
35011;BME280;21205;37.378;127.098;2023-03-05T07:47:21;100819.47;;;27.24;36.83
35011;BME280;21205;37.378;127.098;2023-03-05T07:49:51;100834.38;;;27.24;36.42
35011;BME280;21205;37.378;127.098;2023-03-05T07:52:20;100827.13;;;27.23;36.19
35011;BME280;21205;37.378;127.098;2023-03-05T07:54:50;100835.22;;;27.28;36.36
35011;BME280;21205;37.378;127.098;2023-03-05T07:57:20;100834.00;;;27.29;36.10
35011;BME280;21205;37.378;127.098;2023-03-05T07:59:49;100832.44;;;27.32;36.01
35011;BME280;21205;37.378;127.098;2023-03-05T08:02:19;100829.97;;;27.31;35.99
35011;BME280;21205;37.378;127.098;2023-03-05T08:04:49;100831.19;;;27.29;35.70
35011;BME280;21205;37.378;127.098;2023-03-05T08:07:19;100834.78;;;27.23;35.63
35011;BME280;21205;37.378;127.098;2023-03-05T08:09:48;100837.63;;;27.26;35.57
35011;BME280;21205;37.378;127.098;2023-03-05T08:12:18;100844.06;;;27.23;35.62
35011;BME280;21205;37.378;127.098;2023-03-05T08:14:48;100834.38;;;27.24;35.45
35011;BME280;21205;37.378;127.098;2023-03-05T08:17:19;100835.59;;;27.23;35.43
35011;BME280;21205;37.378;127.098;2023-03-05T08:19:48;100839.63;;;27.22;35.37
35011;BME280;21205;37.378;127.098;2023-03-05T08:22:18;100829.94;;;27.23;35.59
35011;BME280;21205;37.378;127.098;2023-03-05T08:24:48;100840.44;;;27.23;35.39
35011;BME280;21205;37.378;127.098;2023-03-05T08:27:19;100831.56;;;27.21;35.77
35011;BME280;21205;37.378;127.098;2023-03-05T08:29:49;100835.63;;;27.31;36.41
35011;BME280;21205;37.378;127.098;2023-03-05T08:32:19;100830.38;;;27.25;35.78
35011;BME280;21205;37.378;127.098;2023-03-05T08:34:48;100833.16;;;27.18;35.52
35011;BME280;21205;37.378;127.098;2023-03-05T08:37:18;100825.06;;;27.13;35.73
35011;BME280;21205;37.378;127.098;2023-03-05T08:39:48;100823.84;;;27.14;35.74
35011;BME280;21205;37.378;127.098;2023-03-05T08:42:17;100829.09;;;27.12;35.62
35011;BME280;21205;37.378;127.098;2023-03-05T08:44:47;100839.56;;;27.08;35.63
35011;BME280;21205;37.378;127.098;2023-03-05T08:47:17;100834.72;;;27.09;35.40
35011;BME280;21205;37.378;127.098;2023-03-05T08:49:48;100841.16;;;27.06;35.54
35011;BME280;21205;37.378;127.098;2023-03-05T08:52:17;100839.13;;;27.03;35.45
35011;BME280;21205;37.378;127.098;2023-03-05T08:54:48;100835.09;;;27.04;35.65
35011;BME280;21205;37.378;127.098;2023-03-05T08:57:18;100837.91;;;27.00;35.66
35011;BME280;21205;37.378;127.098;2023-03-05T08:59:47;100829.75;;;26.95;35.43
35011;BME280;21205;37.378;127.098;2023-03-05T09:02:17;100832.97;;;26.97;35.49
35011;BME280;21205;37.378;127.098;2023-03-05T09:04:47;100842.63;;;26.92;35.39
35011;BME280;21205;37.378;127.098;2023-03-05T09:07:16;100835.38;;;26.91;35.45
35011;BME280;21205;37.378;127.098;2023-03-05T09:09:46;100840.16;;;26.87;35.71
35011;BME280;21205;37.378;127.098;2023-03-05T09:12:16;100843.78;;;26.84;35.92
35011;BME280;21205;37.378;127.098;2023-03-05T09:14:45;100840.94;;;26.81;35.83
35011;BME280;21205;37.378;127.098;2023-03-05T09:17:15;100847.38;;;26.78;35.93
35011;BME280;21205;37.378;127.098;2023-03-05T09:19:45;100854.59;;;26.75;36.02
35011;BME280;21205;37.378;127.098;2023-03-05T09:22:14;100848.16;;;26.75;36.26
35011;BME280;21205;37.378;127.098;2023-03-05T09:24:44;100848.94;;;26.72;36.02
35011;BME280;21205;37.378;127.098;2023-03-05T09:27:14;100845.69;;;26.70;36.43
35011;BME280;21205;37.378;127.098;2023-03-05T09:29:44;100841.66;;;26.67;36.53
35011;BME280;21205;37.378;127.098;2023-03-05T09:32:13;100846.91;;;26.69;36.83
35011;BME280;21205;37.378;127.098;2023-03-05T09:34:43;100844.81;;;26.62;38.17
35011;BME280;21205;37.378;127.098;2023-03-05T09:37:12;100846.41;;;26.59;37.90
35011;BME280;21205;37.378;127.098;2023-03-05T09:39:42;100844.00;;;26.61;37.84
35011;BME280;21205;37.378;127.098;2023-03-05T09:42:29;100845.63;;;26.62;38.01
35011;BME280;21205;37.378;127.098;2023-03-05T09:56:30;100850.25;;;26.37;38.20
35011;BME280;21205;37.378;127.098;2023-03-05T10:01:43;100862.59;;;26.29;37.93
35011;BME280;21205;37.378;127.098;2023-03-05T10:04:15;100860.94;;;26.24;37.95
35011;BME280;21205;37.378;127.098;2023-03-05T10:07:15;100868.56;;;26.20;37.77
35011;BME280;21205;37.378;127.098;2023-03-05T10:10:16;100859.66;;;26.15;38.08
35011;BME280;21205;37.378;127.098;2023-03-05T10:12:51;100862.38;;;26.08;37.95
35011;BME280;21205;37.378;127.098;2023-03-05T10:15:46;100858.38;;;26.09;38.16
35011;BME280;21205;37.378;127.098;2023-03-05T10:18:48;100863.91;;;26.01;38.00
35011;BME280;21205;37.378;127.098;2023-03-05T10:28:24;100873.03;;;25.88;38.14
35011;BME280;21205;37.378;127.098;2023-03-05T10:36:46;100885.81;;;25.82;37.97
35011;BME280;21205;37.378;127.098;2023-03-05T10:44:59;100878.88;;;25.72;37.64
35011;BME280;21205;37.378;127.098;2023-03-05T10:47:53;100885.06;;;25.85;37.86
35011;BME280;21205;37.378;127.098;2023-03-05T10:50:27;100884.97;;;25.78;37.98
35011;BME280;21205;37.378;127.098;2023-03-05T10:53:34;100883.00;;;25.82;37.96
35011;BME280;21205;37.378;127.098;2023-03-05T10:56:06;100880.91;;;25.75;38.06
35011;BME280;21205;37.378;127.098;2023-03-05T10:58:35;100882.94;;;25.74;37.94
35011;BME280;21205;37.378;127.098;2023-03-05T11:01:19;100884.50;;;25.72;38.07
35011;BME280;21205;37.378;127.098;2023-03-05T11:04:08;100882.50;;;25.72;38.16
35011;BME280;21205;37.378;127.098;2023-03-05T11:06:53;100888.06;;;25.69;38.15
35011;BME280;21205;37.378;127.098;2023-03-05T11:09:24;100883.28;;;25.69;37.88
35011;BME280;21205;37.378;127.098;2023-03-05T11:12:05;100890.44;;;25.67;37.73
35011;BME280;21205;37.378;127.098;2023-03-05T11:14:45;100888.81;;;25.66;38.09
35011;BME280;21205;37.378;127.098;2023-03-05T11:31:23;100895.97;;;25.60;38.18
35011;BME280;21205;37.378;127.098;2023-03-05T11:34:04;100895.91;;;25.56;38.70
35011;BME280;21205;37.378;127.098;2023-03-05T11:36:38;100890.34;;;25.60;38.20
35011;BME280;21205;37.378;127.098;2023-03-05T11:39:16;100891.47;;;25.55;38.37
35011;BME280;21205;37.378;127.098;2023-03-05T11:41:52;100890.66;;;25.55;38.43
35011;BME280;21205;37.378;127.098;2023-03-05T11:44:44;100891.06;;;25.53;38.71
35011;BME280;21205;37.378;127.098;2023-03-05T11:52:48;100886.88;;;25.40;38.87
35011;BME280;21205;37.378;127.098;2023-03-05T11:55:45;100889.94;;;25.31;38.46
35011;BME280;21205;37.378;127.098;2023-03-05T12:01:15;100884.16;;;25.21;39.22
35011;BME280;21205;37.378;127.098;2023-03-05T12:03:46;100890.50;;;25.14;38.27
35011;BME280;21205;37.378;127.098;2023-03-05T12:06:32;100892.38;;;25.33;38.31
35011;BME280;21205;37.378;127.098;2023-03-05T12:09:14;100893.19;;;25.33;37.84
35011;BME280;21205;37.378;127.098;2023-03-05T12:11:46;100895.19;;;25.33;38.25
35011;BME280;21205;37.378;127.098;2023-03-05T12:14:22;100901.25;;;25.35;38.24
35011;BME280;21205;37.378;127.098;2023-03-05T12:17:13;100908.13;;;25.37;38.45
35011;BME280;21205;37.378;127.098;2023-03-05T12:20:28;100908.13;;;25.37;38.17
35011;BME280;21205;37.378;127.098;2023-03-05T12:22:59;100912.56;;;25.38;38.15
35011;BME280;21205;37.378;127.098;2023-03-05T12:25:48;100901.69;;;25.37;38.46
35011;BME280;21205;37.378;127.098;2023-03-05T12:33:40;100904.13;;;25.38;38.44
35011;BME280;21205;37.378;127.098;2023-03-05T12:38:56;100909.38;;;25.40;38.53
35011;BME280;21205;37.378;127.098;2023-03-05T12:46:42;100921.44;;;25.40;38.65
35011;BME280;21205;37.378;127.098;2023-03-05T12:51:53;100928.91;;;25.29;38.70
35011;BME280;21205;37.378;127.098;2023-03-05T12:54:39;100937.44;;;25.36;39.34
35011;BME280;21205;37.378;127.098;2023-03-05T12:57:23;100932.03;;;25.51;38.95
35011;BME280;21205;37.378;127.098;2023-03-05T13:00:27;100923.22;;;25.52;38.78
35011;BME280;21205;37.378;127.098;2023-03-05T13:03:06;100926.03;;;25.52;38.71
35011;BME280;21205;37.378;127.098;2023-03-05T13:05:38;100927.19;;;25.48;38.75
35011;BME280;21205;37.378;127.098;2023-03-05T13:08:22;100921.94;;;25.46;38.80
35011;BME280;21205;37.378;127.098;2023-03-05T13:11:01;100936.00;;;25.46;38.26
35011;BME280;21205;37.378;127.098;2023-03-05T13:13:42;100929.56;;;25.46;38.33
35011;BME280;21205;37.378;127.098;2023-03-05T13:16:26;100910.63;;;25.42;38.12
35011;BME280;21205;37.378;127.098;2023-03-05T13:19:00;100912.63;;;25.42;38.67
35011;BME280;21205;37.378;127.098;2023-03-05T13:21:32;100916.59;;;25.37;38.38
35011;BME280;21205;37.378;127.098;2023-03-05T13:24:03;100923.72;;;25.31;38.35
35011;BME280;21205;37.378;127.098;2023-03-05T13:26:40;100914.84;;;25.29;38.66
35011;BME280;21205;37.378;127.098;2023-03-05T13:29:18;100915.22;;;25.28;38.51
35011;BME280;21205;37.378;127.098;2023-03-05T13:31:53;100912.69;;;25.19;38.83
35011;BME280;21205;37.378;127.098;2023-03-05T13:34:27;100911.88;;;25.19;38.67
35011;BME280;21205;37.378;127.098;2023-03-05T13:37:20;100909.09;;;25.22;38.65
35011;BME280;21205;37.378;127.098;2023-03-05T13:40:00;100915.94;;;25.21;38.27
35011;BME280;21205;37.378;127.098;2023-03-05T13:42:35;100916.31;;;25.20;38.62
35011;BME280;21205;37.378;127.098;2023-03-05T13:45:29;100911.47;;;25.20;38.75
35011;BME280;21205;37.378;127.098;2023-03-05T13:48:01;100915.06;;;25.17;38.43
35011;BME280;21205;37.378;127.098;2023-03-05T13:50:32;100908.94;;;25.11;38.65
35011;BME280;21205;37.378;127.098;2023-03-05T13:53:16;100906.13;;;25.11;38.58
35011;BME280;21205;37.378;127.098;2023-03-05T13:55:47;100905.31;;;25.11;38.94
35011;BME280;21205;37.378;127.098;2023-03-05T13:58:40;100898.69;;;25.00;38.97
35011;BME280;21205;37.378;127.098;2023-03-05T14:03:52;100907.06;;;24.96;38.86
35011;BME280;21205;37.378;127.098;2023-03-05T14:06:26;100897.38;;;24.94;38.67
35011;BME280;21205;37.378;127.098;2023-03-05T14:12:03;100896.94;;;24.92;39.01
35011;BME280;21205;37.378;127.098;2023-03-05T14:14:36;100896.13;;;24.91;38.66
35011;BME280;21205;37.378;127.098;2023-03-05T14:22:45;100902.84;;;24.83;38.53